createdAt,value
2023-01-13T00:03:25.503Z,89.17
2023-01-13T00:07:23.378Z,89.13
2023-01-13T00:11:21.313Z,89.09
2023-01-13T00:15:21.242Z,89.07
2023-01-13T00:19:19.280Z,89.04
2023-01-13T00:23:17.255Z,89.01
2023-01-13T00:27:15.273Z,89.01
2023-01-13T00:31:23.285Z,89.03
2023-01-13T00:35:21.298Z,89.05
2023-01-13T00:39:19.188Z,89.05
2023-01-13T00:43:37.302Z,89.06
2023-01-13T00:47:35.510Z,89.06
2023-01-13T00:51:36.222Z,89.02
2023-01-13T00:55:34.240Z,89.00
2023-01-13T00:59:32.205Z,88.97
2023-01-13T01:03:30.343Z,88.93
2023-01-13T01:07:28.231Z,88.91
2023-01-13T01:11:30.235Z,88.88
2023-01-13T01:15:28.183Z,88.87
2023-01-13T01:19:26.144Z,88.85
2023-01-13T01:23:24.212Z,88.85
2023-01-13T01:27:22.149Z,88.89
2023-01-13T01:31:38.189Z,88.90
2023-01-13T01:35:36.160Z,88.90
2023-01-13T01:39:34.140Z,88.89
2023-01-13T01:43:53.232Z,88.89
2023-01-13T01:47:51.200Z,88.87
2023-01-13T01:52:01.122Z,88.84
2023-01-13T01:55:59.164Z,88.84
2023-01-13T01:59:57.108Z,88.82
2023-01-13T02:04:12.101Z,88.81
2023-01-13T02:08:12.085Z,88.78
2023-01-13T02:12:27.144Z,88.77
2023-01-13T02:16:32.163Z,88.75
2023-01-13T02:20:48.207Z,88.80
2023-01-13T02:25:04.110Z,88.82
2023-01-13T02:29:41.093Z,88.82
2023-01-13T02:33:56.062Z,88.83
2023-01-13T02:37:58.060Z,88.86
2023-01-13T02:42:23.092Z,88.89
2023-01-13T02:46:31.080Z,89.02
2023-01-13T02:50:33.052Z,89.09
2023-01-13T02:54:37.026Z,89.09
2023-01-13T02:58:40.076Z,89.05
2023-01-13T03:02:40.140Z,88.95
2023-01-13T03:06:52.050Z,88.78
2023-01-13T03:11:09.128Z,88.69
2023-01-13T03:15:33.118Z,88.60
2023-01-13T03:19:52.036Z,88.50
2023-01-13T03:23:59.083Z,88.47
2023-01-13T03:28:09.060Z,88.44
2023-01-13T03:32:14.080Z,88.48
2023-01-13T03:36:17.075Z,88.49
2023-01-13T03:40:21.106Z,88.50
2023-01-13T03:44:32.797Z,88.48
2023-01-13T03:48:34.973Z,88.41
2023-01-13T03:52:43.080Z,88.26
2023-01-13T03:56:56.963Z,88.18
2023-01-13T04:01:05.027Z,87.82
2023-01-13T04:05:12.954Z,87.59
2023-01-13T04:09:19.036Z,87.28
2023-01-13T04:13:22.953Z,87.08
2023-01-13T04:17:20.940Z,86.89
2023-01-13T04:21:19.941Z,86.92
2023-01-13T04:25:18.025Z,86.69
2023-01-13T04:29:15.961Z,86.49
2023-01-13T04:33:13.944Z,86.20
2023-01-13T04:37:11.940Z,86.31
2023-01-13T04:41:09.887Z,85.98
2023-01-13T04:45:07.921Z,85.93
2023-01-13T04:49:05.897Z,85.82
2023-01-13T04:53:08.989Z,85.35
2023-01-13T04:57:06.974Z,85.34
2023-01-13T05:01:05.878Z,85.08
2023-01-13T05:05:03.876Z,85.07
2023-01-13T05:09:01.931Z,84.80
2023-01-13T05:13:17.949Z,84.79
2023-01-13T05:17:15.908Z,84.64
2023-01-13T05:21:33.884Z,84.56
2023-01-13T05:25:32.832Z,84.57
2023-01-13T05:29:32.966Z,84.44
2023-01-13T05:33:34.996Z,84.40
2023-01-13T05:37:33.870Z,84.07
2023-01-13T05:41:48.837Z,83.94
2023-01-13T05:45:46.915Z,83.97
2023-01-13T05:49:44.904Z,83.77
2023-01-13T05:53:42.830Z,83.79
2023-01-13T05:57:40.853Z,83.61
2023-01-13T06:01:38.832Z,83.58
2023-01-13T06:05:36.812Z,83.59
2023-01-13T06:09:34.771Z,83.71
2023-01-13T06:13:34.815Z,83.73
2023-01-13T06:17:32.897Z,83.71
2023-01-13T06:21:33.041Z,83.88
2023-01-13T06:26:10.842Z,83.59
2023-01-13T06:30:08.761Z,83.39
2023-01-13T06:34:21.852Z,83.44
2023-01-13T06:38:23.750Z,83.39
2023-01-13T06:42:39.017Z,83.30
2023-01-13T06:46:16.326Z,83.03
2023-01-13T06:49:40.417Z,83.12
2023-01-13T06:53:06.821Z,83.05
2023-01-13T06:56:30.710Z,82.98
2023-01-13T06:59:55.456Z,82.75
2023-01-13T07:03:20.305Z,82.45
2023-01-13T07:06:44.195Z,82.46
2023-01-13T07:10:10.006Z,82.27
2023-01-13T07:13:54.294Z,82.26
2023-01-13T07:17:25.506Z,81.99
2023-01-13T07:20:57.059Z,81.76
2023-01-13T07:24:22.548Z,81.52
2023-01-13T07:27:46.594Z,81.45
2023-01-13T07:31:28.811Z,81.61
2023-01-13T07:34:52.735Z,80.85
2023-01-13T07:38:17.261Z,80.73
2023-01-13T07:41:57.658Z,80.41
2023-01-13T07:45:21.679Z,79.84
2023-01-13T07:48:45.743Z,79.77
2023-01-13T07:52:09.979Z,79.34
2023-01-13T07:55:34.180Z,79.30
2023-01-13T07:59:00.709Z,79.07
2023-01-13T08:02:24.920Z,78.43
2023-01-13T08:05:49.645Z,78.26
2023-01-13T08:09:13.676Z,77.90
2023-01-13T08:12:56.926Z,78.04
2023-01-13T08:16:21.090Z,77.44
2023-01-13T08:19:45.086Z,76.72
2023-01-13T08:23:09.033Z,76.49
2023-01-13T08:26:32.903Z,76.69
2023-01-13T08:29:57.229Z,76.50
2023-01-13T08:33:21.452Z,76.93
2023-01-13T08:36:45.402Z,76.63
2023-01-13T08:40:10.040Z,76.83
2023-01-13T08:43:34.185Z,76.64
2023-01-13T08:46:58.983Z,76.25
2023-01-13T08:50:23.076Z,76.21
2023-01-13T08:53:47.116Z,76.31
2023-01-13T08:57:11.122Z,76.38
2023-01-13T09:00:35.333Z,76.20
2023-01-13T09:03:59.389Z,76.24
2023-01-13T09:07:23.384Z,76.17
2023-01-13T09:10:47.263Z,76.17
2023-01-13T09:14:11.159Z,76.17
2023-01-13T09:17:35.175Z,76.41
2023-01-13T09:21:00.189Z,76.30
2023-01-13T09:24:25.197Z,76.42
2023-01-13T09:27:49.070Z,76.16
2023-01-13T09:31:12.974Z,76.18
2023-01-13T09:34:54.605Z,76.27
2023-01-13T09:38:18.467Z,76.24
2023-01-13T09:42:02.863Z,76.04
2023-01-13T09:45:52.416Z,75.78
2023-01-13T09:49:23.094Z,75.60
2023-01-13T09:52:47.075Z,75.66
2023-01-13T09:56:12.308Z,75.17
2023-01-13T09:59:37.013Z,74.93
2023-01-13T10:03:30.702Z,74.60
2023-01-13T10:07:00.078Z,74.32
2023-01-13T10:10:38.161Z,74.16
2023-01-13T10:14:16.322Z,74.00
2023-01-13T10:17:44.129Z,74.09
2023-01-13T10:22:00.333Z,74.12
2023-01-13T10:25:52.130Z,74.01
2023-01-13T10:29:26.214Z,73.88
2023-01-13T10:32:57.413Z,73.63
2023-01-13T10:36:23.178Z,73.78
2023-01-13T10:39:48.232Z,74.02
2023-01-13T10:43:12.253Z,73.78
2023-01-13T10:46:53.240Z,73.73
2023-01-13T10:50:17.178Z,73.54
2023-01-13T10:53:56.042Z,73.25
2023-01-13T10:57:22.808Z,73.35
2023-01-13T11:00:47.926Z,73.45
2023-01-13T11:04:27.922Z,73.24
2023-01-13T11:07:56.474Z,73.15
2023-01-13T11:11:41.075Z,73.27
2023-01-13T11:15:11.031Z,72.94
2023-01-13T11:18:34.889Z,73.24
2023-01-13T11:22:18.580Z,73.28
2023-01-13T11:25:46.061Z,72.79
2023-01-13T11:29:21.797Z,72.37
2023-01-13T11:33:18.623Z,72.48
2023-01-13T11:36:47.521Z,72.69
2023-01-13T11:40:37.620Z,72.73
2023-01-13T11:44:19.964Z,72.44
2023-01-13T11:47:46.893Z,72.06
2023-01-13T11:51:44.556Z,72.55
2023-01-13T11:55:17.240Z,72.33
2023-01-13T11:58:59.316Z,72.10
2023-01-13T12:02:33.550Z,71.78
2023-01-13T12:06:36.000Z,71.79
2023-01-13T12:10:13.262Z,71.95
2023-01-13T12:13:52.377Z,71.94
2023-01-13T12:17:28.698Z,71.93
2023-01-13T12:21:21.851Z,71.98
2023-01-13T12:25:25.410Z,72.14
2023-01-13T12:29:19.442Z,72.25
2023-01-13T12:32:47.728Z,72.41
2023-01-13T12:36:30.287Z,72.50
2023-01-13T12:40:05.365Z,72.64
2023-01-13T12:43:46.978Z,72.42
2023-01-13T12:47:35.501Z,72.54
2023-01-13T12:51:01.739Z,72.81
2023-01-13T12:54:54.922Z,73.06
2023-01-13T12:58:25.651Z,72.96
2023-01-13T13:02:11.352Z,73.12
2023-01-13T13:05:46.091Z,73.22
2023-01-13T13:09:29.568Z,73.46
2023-01-13T13:13:12.974Z,73.67
2023-01-13T13:16:51.797Z,73.79
2023-01-13T13:20:55.284Z,73.72
2023-01-13T13:24:19.446Z,73.68
2023-01-13T13:28:07.328Z,73.71
2023-01-13T13:31:46.293Z,74.03
2023-01-13T13:35:44.023Z,73.76
2023-01-13T13:39:45.295Z,73.80
2023-01-13T13:43:31.383Z,73.80
2023-01-13T13:47:00.369Z,74.09
2023-01-13T13:50:24.472Z,74.07
2023-01-13T13:53:48.958Z,74.31
2023-01-13T13:57:19.119Z,74.19
2023-01-13T14:00:49.158Z,74.23
2023-01-13T14:04:23.254Z,74.29
2023-01-13T14:07:50.156Z,74.27
2023-01-13T14:11:42.275Z,74.18
2023-01-13T14:15:06.673Z,74.21
2023-01-13T14:18:34.764Z,74.34
2023-01-13T14:22:01.964Z,74.41
2023-01-13T14:25:33.668Z,74.67
2023-01-13T14:29:02.913Z,74.84
2023-01-13T14:32:52.147Z,74.93
2023-01-13T14:36:54.055Z,75.04
2023-01-13T14:40:53.053Z,75.31
2023-01-13T14:44:51.050Z,75.50
2023-01-13T14:48:54.070Z,75.78
2023-01-13T14:53:07.057Z,75.95
2023-01-13T14:57:07.041Z,76.06
2023-01-13T15:01:06.058Z,76.23
2023-01-13T15:05:06.140Z,76.57
2023-01-13T15:09:04.015Z,76.75
2023-01-13T15:13:05.987Z,76.96
2023-01-13T15:17:03.978Z,77.23
2023-01-13T15:21:02.056Z,77.44
2023-01-13T15:25:05.070Z,77.83
2023-01-13T15:29:04.031Z,77.85
2023-01-13T15:33:02.083Z,78.27
2023-01-13T15:37:02.132Z,78.38
2023-01-13T15:41:01.991Z,78.44
2023-01-13T15:45:18.087Z,78.60
2023-01-13T15:49:19.969Z,78.69
2023-01-13T15:53:18.041Z,78.81
2023-01-13T15:57:16.007Z,79.12
2023-01-13T16:01:14.091Z,79.31
2023-01-13T16:05:11.909Z,79.56
2023-01-13T16:09:09.962Z,79.72
2023-01-13T16:13:11.321Z,79.87
2023-01-13T16:17:08.984Z,79.90
2023-01-13T16:21:07.907Z,79.97
2023-01-13T16:25:05.981Z,79.92
2023-01-13T16:29:04.998Z,80.24
2023-01-13T16:33:03.037Z,80.36
2023-01-13T16:37:00.945Z,80.17
2023-01-13T16:40:59.098Z,80.17
2023-01-13T16:44:56.932Z,80.37
2023-01-13T16:48:55.134Z,80.51
2023-01-13T16:52:53.041Z,80.56
2023-01-13T16:56:51.003Z,80.54
2023-01-13T17:00:49.025Z,80.71
2023-01-13T17:04:46.953Z,80.91
2023-01-13T17:08:45.031Z,80.87
2023-01-13T17:12:43.012Z,80.83
2023-01-13T17:16:40.925Z,80.94
2023-01-13T17:20:39.000Z,80.91
2023-01-13T17:24:37.893Z,80.88
2023-01-13T17:28:35.914Z,80.80
2023-01-13T17:32:35.909Z,80.70
2023-01-13T17:36:33.936Z,80.61
2023-01-13T17:40:31.916Z,80.65
2023-01-13T17:44:34.910Z,80.56
2023-01-13T17:48:32.912Z,80.52
2023-01-13T17:52:30.989Z,80.32
2023-01-13T17:56:30.925Z,80.29
2023-01-13T18:00:28.928Z,80.26
2023-01-13T18:04:31.849Z,80.12
2023-01-13T18:08:30.900Z,80.05
2023-01-13T18:12:28.866Z,80.03
2023-01-13T18:16:30.456Z,80.00
2023-01-13T18:20:45.916Z,79.86
2023-01-13T18:25:00.923Z,79.89
2023-01-13T18:28:58.803Z,79.85
2023-01-13T18:32:56.960Z,79.80
2023-01-13T18:36:55.853Z,79.75
2023-01-13T18:40:53.832Z,79.64
2023-01-13T18:44:51.815Z,79.55
2023-01-13T18:48:49.811Z,79.53
2023-01-13T18:52:47.879Z,79.48
2023-01-13T18:56:46.061Z,79.46
2023-01-13T19:00:43.837Z,79.40
2023-01-13T19:04:44.116Z,79.35
2023-01-13T19:08:41.776Z,79.31
2023-01-13T19:12:40.786Z,79.37
2023-01-13T19:16:38.749Z,79.43
2023-01-13T19:20:36.798Z,79.43
2023-01-13T19:24:34.775Z,79.48
2023-01-13T19:28:33.159Z,79.52
2023-01-13T19:32:30.956Z,79.64
2023-01-13T19:36:28.766Z,79.69
2023-01-13T19:40:26.719Z,79.88
2023-01-13T19:44:43.751Z,80.30
2023-01-13T19:48:41.716Z,81.01
2023-01-13T19:52:39.770Z,81.53
2023-01-13T19:56:37.718Z,81.77
2023-01-13T20:00:35.738Z,82.14
2023-01-13T20:04:40.672Z,82.74
2023-01-13T20:08:38.726Z,82.94
2023-01-13T20:12:36.676Z,83.02
2023-01-13T20:16:34.905Z,83.16
2023-01-13T20:20:32.676Z,83.22
2023-01-13T20:24:32.703Z,83.54
2023-01-13T20:28:30.656Z,83.75
2023-01-13T20:32:29.957Z,83.80
2023-01-13T20:36:45.726Z,83.93
2023-01-13T20:40:45.803Z,84.09
2023-01-13T20:44:43.638Z,84.28
2023-01-13T20:48:42.715Z,84.43
2023-01-13T20:52:40.711Z,84.43
2023-01-13T20:56:39.690Z,84.48
2023-01-13T21:00:37.681Z,84.69
2023-01-13T21:04:40.043Z,84.83
2023-01-13T21:08:37.625Z,84.82
2023-01-13T21:12:53.625Z,84.94
2023-01-13T21:16:51.604Z,84.93
2023-01-13T21:20:51.639Z,85.01
2023-01-13T21:24:50.636Z,84.97
2023-01-13T21:28:48.616Z,84.92
2023-01-13T21:32:46.580Z,84.97
2023-01-13T21:36:44.983Z,85.06
2023-01-13T21:40:42.586Z,85.20
2023-01-13T21:44:58.667Z,85.23
2023-01-13T21:48:58.589Z,85.30
2023-01-13T21:52:56.550Z,85.25
2023-01-13T21:56:54.635Z,85.24
2023-01-13T22:00:56.723Z,85.27
2023-01-13T22:04:55.584Z,85.36
2023-01-13T22:08:53.637Z,85.30
2023-01-13T22:12:51.527Z,85.27
2023-01-13T22:16:55.551Z,85.22
2023-01-13T22:20:53.522Z,85.10
2023-01-13T22:24:51.590Z,85.07
2023-01-13T22:28:51.847Z,85.09
2023-01-13T22:32:50.630Z,85.10
2023-01-13T22:36:49.509Z,85.17
2023-01-13T22:40:47.623Z,85.20
2023-01-13T22:44:45.575Z,85.22
2023-01-13T22:48:43.520Z,85.23
2023-01-13T22:52:45.594Z,85.12
2023-01-13T22:56:44.468Z,85.03
2023-01-13T23:00:43.504Z,85.00
2023-01-13T23:04:41.590Z,85.16
2023-01-13T23:08:39.448Z,85.35
2023-01-13T23:12:38.517Z,85.39
2023-01-13T23:16:37.525Z,85.41
2023-01-13T23:20:35.542Z,85.49
2023-01-13T23:24:35.472Z,85.56
2023-01-13T23:28:33.483Z,85.74
2023-01-13T23:32:32.470Z,85.84
2023-01-13T23:36:38.432Z,85.87
2023-01-13T23:40:36.382Z,85.55
2023-01-13T23:44:34.475Z,85.61
2023-01-13T23:48:32.401Z,85.89
2023-01-13T23:52:36.632Z,86.12
2023-01-13T23:56:39.653Z,86.30
